Time;durP1;ratioP1;P1;durP2;ratioP2;P2;SDS_P1;SDS_P2;PMS_P1;PMS_P2;Temp;Humidity;BMP_temperature;BMP_pressure;BME280_temperature;BME280_humidity;BME280_pressure;Samples;Min_cycle;Max_cycle;Signal;HPM_P1;HPM_P2
2022/09/20 00:01:28;;;;;;;0.50;0.50;;;15.60;99.90;;;;;;5066665;28;20331;-51
2022/09/20 00:03:57;;;;;;;0.70;0.70;;;15.60;99.90;;;;;;5067203;28;20208;-46
2022/09/20 00:06:26;;;;;;;2.10;0.70;;;15.70;99.90;;;;;;5066681;28;20467;-47
2022/09/20 00:08:54;;;;;;;0.43;0.43;;;15.70;99.90;;;;;;5065578;28;20288;-48
2022/09/20 00:11:23;;;;;;;0.60;0.60;;;15.60;99.90;;;;;;5065571;28;20205;-52
2022/09/20 00:13:51;;;;;;;0.60;0.60;;;15.60;99.90;;;;;;5059223;28;20268;-46
2022/09/20 00:16:21;;;;;;;0.70;0.70;;;15.60;99.90;;;;;;5065087;28;20219;-48
2022/09/20 00:18:49;;;;;;;0.60;0.60;;;15.50;99.90;;;;;;5063545;28;20598;-52
2022/09/20 00:21:19;;;;;;;0.50;0.50;;;15.50;99.90;;;;;;5064477;28;20193;-52
2022/09/20 00:23:46;;;;;;;0.60;0.60;;;15.50;99.90;;;;;;5063445;28;20240;-50
2022/09/20 00:26:13;;;;;;;0.50;0.50;;;15.50;99.90;;;;;;5063212;28;20723;-47
2022/09/20 00:28:42;;;;;;;0.50;0.50;;;15.50;99.90;;;;;;5061586;28;20288;-49
2022/09/20 00:31:10;;;;;;;0.80;0.80;;;15.40;99.90;;;;;;5063280;28;20213;-48
2022/09/20 00:36:24;;;;;;;1.40;0.67;;;15.40;99.90;;;;;;5063095;28;20198;-51
2022/09/20 00:38:55;;;;;;;0.63;0.60;;;15.40;99.90;;;;;;5064422;28;20284;-52
2022/09/20 00:41:22;;;;;;;1.03;0.70;;;15.30;99.90;;;;;;5064824;28;20274;-50
2022/09/20 00:43:49;;;;;;;4.43;0.97;;;15.30;99.90;;;;;;5064738;28;20189;-49
2022/09/20 00:46:22;;;;;;;0.73;0.73;;;15.20;99.90;;;;;;5069778;28;20255;-51
2022/09/20 00:48:52;;;;;;;0.80;0.77;;;15.20;99.90;;;;;;5070344;28;20220;-51
2022/09/20 00:51:26;;;;;;;0.70;0.70;;;15.20;99.90;;;;;;5069768;28;20199;-49
2022/09/20 00:53:57;;;;;;;0.73;0.73;;;15.20;99.90;;;;;;5062902;28;20562;-50
2022/09/20 00:56:28;;;;;;;0.73;0.73;;;15.20;99.90;;;;;;5067998;28;20213;-49
2022/09/20 00:59:02;;;;;;;1.00;0.87;;;15.20;99.90;;;;;;5068718;28;20288;-49
2022/09/20 01:01:30;;;;;;;0.83;0.83;;;15.20;99.90;;;;;;5066469;28;20200;-51
2022/09/20 01:03:58;;;;;;;0.80;0.80;;;15.20;99.90;;;;;;5067869;28;20197;-51
2022/09/20 01:06:27;;;;;;;0.70;0.70;;;15.20;99.90;;;;;;5069638;28;20287;-47
2022/09/20 01:08:56;;;;;;;0.80;0.70;;;15.20;99.90;;;;;;5068905;28;20197;-49
2022/09/20 01:11:23;;;;;;;0.70;0.70;;;15.10;99.90;;;;;;5068354;28;20193;-46
2022/09/20 01:13:50;;;;;;;0.83;0.83;;;15.10;99.90;;;;;;5066016;28;20597;-48
2022/09/20 01:16:18;;;;;;;0.80;0.80;;;15.10;99.90;;;;;;5070076;28;20361;-48
2022/09/20 01:18:47;;;;;;;1.27;0.80;;;15.10;99.90;;;;;;5066464;28;20208;-51
2022/09/20 01:21:15;;;;;;;0.80;0.80;;;15.00;99.90;;;;;;5069575;28;20199;-49
2022/09/20 01:23:56;;;;;;;0.80;0.80;;;15.10;99.90;;;;;;5067461;28;20590;-49
2022/09/20 01:26:43;;;;;;;0.90;0.90;;;15.00;99.90;;;;;;5066467;28;20188;-49
2022/09/20 01:29:23;;;;;;;1.63;0.77;;;15.00;99.90;;;;;;5067446;28;20189;-48
2022/09/20 01:31:54;;;;;;;0.60;0.60;;;15.00;99.90;;;;;;5064352;28;20194;-48
2022/09/20 01:34:27;;;;;;;0.60;0.60;;;14.90;99.90;;;;;;5066560;28;20215;-48
2022/09/20 01:37:03;;;;;;;1.03;0.73;;;14.90;99.90;;;;;;5067713;28;20202;-48
2022/09/20 01:39:39;;;;;;;0.63;0.63;;;14.90;99.90;;;;;;5065554;28;20220;-51
2022/09/20 01:42:09;;;;;;;0.87;0.60;;;14.90;99.90;;;;;;5064702;28;20185;-49
2022/09/20 01:44:45;;;;;;;1.03;0.97;;;14.90;99.90;;;;;;5066574;28;20235;-53
2022/09/20 01:47:22;;;;;;;0.80;0.80;;;14.80;99.90;;;;;;5067576;28;20200;-53
2022/09/20 01:49:56;;;;;;;0.90;0.80;;;14.80;99.90;;;;;;5066713;28;20589;-51
2022/09/20 01:52:47;;;;;;;0.87;0.87;;;14.80;99.90;;;;;;5065946;28;20718;-55
2022/09/20 01:55:44;;;;;;;0.70;0.70;;;14.80;99.90;;;;;;5064763;28;20208;-53
2022/09/20 01:58:55;;;;;;;0.70;0.70;;;14.80;99.90;;;;;;5066458;28;20297;-49
2022/09/20 02:02:07;;;;;;;0.70;0.70;;;14.70;99.90;;;;;;5065706;28;20688;-51
2022/09/20 02:05:06;;;;;;;1.93;0.77;;;14.70;99.90;;;;;;5026768;28;20197;-54
2022/09/20 02:08:06;;;;;;;0.70;0.70;;;14.60;99.90;;;;;;5067351;28;20264;-52
2022/09/20 02:10:50;;;;;;;0.73;0.73;;;14.60;99.90;;;;;;5066113;28;20303;-53
2022/09/20 02:13:29;;;;;;;0.73;0.73;;;14.60;99.90;;;;;;5063876;28;20260;-51
2022/09/20 02:16:20;;;;;;;0.70;0.70;;;14.60;99.90;;;;;;5064224;28;20620;-52
2022/09/20 02:19:21;;;;;;;0.70;0.70;;;14.60;99.90;;;;;;5067541;28;20192;-48
2022/09/20 02:21:55;;;;;;;0.60;0.60;;;14.60;99.90;;;;;;5067356;28;20271;-53
2022/09/20 02:24:29;;;;;;;0.60;0.60;;;14.60;99.90;;;;;;5066035;28;20192;-50
2022/09/20 02:27:07;;;;;;;0.60;0.60;;;14.60;99.90;;;;;;5065660;28;20288;-50
2022/09/20 02:29:48;;;;;;;0.90;0.80;;;14.60;99.90;;;;;;5066894;28;20231;-52
2022/09/20 02:32:39;;;;;;;2.40;0.60;;;14.60;99.90;;;;;;5067527;28;20262;-54
2022/09/20 02:35:25;;;;;;;1.47;1.07;;;14.60;99.90;;;;;;5066933;28;20276;-53
2022/09/20 02:38:01;;;;;;;0.60;0.60;;;14.60;99.90;;;;;;5063021;28;20253;-52
2022/09/20 02:40:51;;;;;;;0.50;0.50;;;14.60;99.90;;;;;;5067050;28;20671;-50
2022/09/20 02:43:27;;;;;;;0.70;0.70;;;14.60;99.90;;;;;;5060364;28;20279;-49
2022/09/20 02:46:01;;;;;;;0.73;0.60;;;14.60;99.90;;;;;;5062879;28;20222;-53
2022/09/20 02:48:38;;;;;;;1.23;0.90;;;14.60;99.90;;;;;;5066586;28;20185;-54
2022/09/20 02:51:17;;;;;;;2.03;0.80;;;14.60;99.90;;;;;;5067047;28;20203;-51
2022/09/20 02:53:55;;;;;;;1.03;0.73;;;14.60;99.90;;;;;;5065862;28;20235;-49
2022/09/20 02:56:31;;;;;;;1.23;0.93;;;14.60;99.90;;;;;;5062462;28;20272;-51
2022/09/20 02:59:05;;;;;;;0.53;0.53;;;14.60;99.90;;;;;;5064853;28;20203;-46
2022/09/20 03:01:44;;;;;;;0.70;0.70;;;14.60;99.90;;;;;;5066374;28;20203;-47
2022/09/20 03:04:25;;;;;;;0.60;0.60;;;14.60;99.90;;;;;;5064909;28;20280;-48
2022/09/20 03:07:00;;;;;;;0.60;0.60;;;14.60;99.90;;;;;;5065710;28;20192;-48
2022/09/20 03:09:34;;;;;;;0.63;0.63;;;14.60;99.90;;;;;;5062480;28;20200;-49
2022/09/20 03:12:14;;;;;;;0.50;0.50;;;14.60;99.90;;;;;;5060618;28;20272;-47
2022/09/20 03:14:51;;;;;;;0.50;0.50;;;14.60;99.90;;;;;;5064490;28;20188;-55
2022/09/20 03:17:27;;;;;;;1.23;0.50;;;14.60;99.90;;;;;;5062389;28;20292;-49
2022/09/20 03:20:08;;;;;;;1.13;0.70;;;14.60;99.90;;;;;;5059528;28;20208;-52
2022/09/20 03:22:48;;;;;;;0.70;0.70;;;14.50;99.90;;;;;;5063596;28;20198;-47
2022/09/20 03:25:33;;;;;;;0.67;0.67;;;14.50;99.90;;;;;;5064118;28;20207;-52
2022/09/20 03:28:15;;;;;;;2.37;0.70;;;14.50;99.90;;;;;;5061681;28;20598;-51
2022/09/20 03:30:57;;;;;;;2.10;0.70;;;14.50;99.90;;;;;;5062945;28;20311;-50
2022/09/20 03:33:34;;;;;;;0.70;0.70;;;14.50;99.90;;;;;;5064550;28;20239;-48
2022/09/20 03:36:13;;;;;;;0.70;0.70;;;14.50;99.90;;;;;;5064463;28;20219;-48
2022/09/20 03:39:05;;;;;;;0.70;0.70;;;14.40;99.90;;;;;;5063785;28;20460;-50
2022/09/20 03:41:55;;;;;;;0.50;0.50;;;14.50;99.90;;;;;;5062781;28;20208;-52
2022/09/20 03:44:52;;;;;;;0.60;0.60;;;14.50;99.90;;;;;;5062148;28;20210;-48
2022/09/20 03:47:36;;;;;;;0.70;0.70;;;14.40;99.90;;;;;;5060740;28;20562;-47
2022/09/20 03:50:19;;;;;;;1.40;1.10;;;14.40;99.90;;;;;;5062319;28;20341;-47
2022/09/20 03:53:21;;;;;;;0.70;0.70;;;14.40;99.90;;;;;;5063243;28;20264;-52
2022/09/20 03:56:14;;;;;;;0.80;0.80;;;14.40;99.90;;;;;;5060611;28;20620;-52
2022/09/20 03:58:58;;;;;;;0.63;0.63;;;14.40;99.90;;;;;;5062582;28;20766;-46
2022/09/20 04:01:50;;;;;;;0.83;0.73;;;14.40;99.90;;;;;;5065179;28;20226;-48
2022/09/20 04:04:25;;;;;;;0.73;0.70;;;14.40;99.90;;;;;;5065534;28;20228;-54
2022/09/20 04:07:13;;;;;;;0.60;0.60;;;14.40;99.90;;;;;;5064112;28;20227;-53
2022/09/20 04:10:18;;;;;;;0.73;0.70;;;14.40;99.90;;;;;;5063716;28;20197;-55
2022/09/20 04:13:05;;;;;;;0.60;0.60;;;14.40;99.90;;;;;;5042296;28;20208;-52
2022/09/20 04:15:40;;;;;;;0.60;0.60;;;14.40;99.90;;;;;;5065976;28;20185;-51
2022/09/20 04:18:18;;;;;;;0.60;0.60;;;14.40;99.90;;;;;;5067677;28;20218;-54
2022/09/20 04:20:47;;;;;;;0.57;0.57;;;14.40;99.90;;;;;;5066382;28;20215;-50
2022/09/20 04:23:29;;;;;;;1.07;0.60;;;14.40;99.90;;;;;;5066592;28;20205;-47
2022/09/20 04:25:59;;;;;;;0.83;0.83;;;14.40;99.90;;;;;;5065585;28;20313;-47
2022/09/20 04:28:34;;;;;;;0.50;0.50;;;14.40;99.90;;;;;;5062813;28;20273;-53
2022/09/20 04:31:10;;;;;;;0.73;0.73;;;14.40;99.90;;;;;;5066821;28;20742;-51
2022/09/20 04:33:43;;;;;;;0.77;0.77;;;14.40;99.90;;;;;;5064271;28;20624;-52
2022/09/20 04:36:29;;;;;;;1.13;0.60;;;14.40;99.90;;;;;;5063147;28;20250;-52
2022/09/20 04:39:05;;;;;;;0.70;0.70;;;14.40;99.90;;;;;;5066712;28;20209;-52
2022/09/20 04:42:12;;;;;;;2.80;0.90;;;14.40;99.90;;;;;;5063308;28;20192;-47
2022/09/20 04:45:15;;;;;;;1.07;0.93;;;14.30;99.90;;;;;;5039448;28;20216;-50
2022/09/20 04:48:17;;;;;;;1.53;1.00;;;14.30;99.90;;;;;;5066071;28;20654;-45
2022/09/20 04:51:20;;;;;;;0.80;0.80;;;14.30;99.90;;;;;;5066257;28;21096;-50
2022/09/20 04:54:05;;;;;;;0.80;0.80;;;14.30;99.90;;;;;;5068560;28;20191;-52
2022/09/20 04:56:50;;;;;;;0.80;0.80;;;14.20;99.90;;;;;;5060144;28;20943;-47
2022/09/20 04:59:33;;;;;;;0.63;0.63;;;14.20;99.90;;;;;;5066582;28;20212;-50
2022/09/20 05:02:33;;;;;;;0.80;0.80;;;14.20;99.90;;;;;;5068376;28;20192;-48
2022/09/20 05:05:23;;;;;;;0.67;0.67;;;14.20;99.90;;;;;;5063636;28;20249;-49
2022/09/20 05:08:15;;;;;;;0.70;0.70;;;14.20;99.90;;;;;;5066102;28;20188;-52
2022/09/20 05:11:29;;;;;;;0.50;0.50;;;14.30;99.90;;;;;;5067373;28;20307;-51
2022/09/20 05:14:21;;;;;;;0.40;0.40;;;14.30;99.90;;;;;;5066437;28;20273;-50
2022/09/20 05:17:06;;;;;;;0.50;0.50;;;14.30;99.90;;;;;;5039627;28;20554;-51
2022/09/20 05:19:44;;;;;;;0.70;0.70;;;14.30;99.90;;;;;;5064948;28;20200;-55
2022/09/20 05:22:47;;;;;;;0.90;0.60;;;14.30;99.90;;;;;;5066142;28;20200;-51
2022/09/20 05:25:41;;;;;;;0.77;0.77;;;14.30;99.90;;;;;;5062157;28;20591;-46
2022/09/20 05:28:15;;;;;;;1.07;0.83;;;14.40;99.90;;;;;;5065734;28;20249;-49
2022/09/20 05:30:47;;;;;;;0.70;0.70;;;14.40;99.90;;;;;;5064558;28;20216;-52
2022/09/20 05:33:22;;;;;;;0.60;0.53;;;14.40;99.90;;;;;;5063334;28;20240;-48
2022/09/20 05:36:01;;;;;;;0.70;0.70;;;14.40;99.90;;;;;;5067519;28;20199;-52
2022/09/20 05:38:41;;;;;;;0.80;0.80;;;14.50;99.90;;;;;;5064285;28;20252;-50
2022/09/20 05:41:17;;;;;;;0.80;0.80;;;14.50;99.90;;;;;;5065108;28;20610;-49
2022/09/20 05:43:54;;;;;;;0.50;0.50;;;14.50;99.90;;;;;;5065705;28;20218;-50
2022/09/20 05:46:33;;;;;;;0.53;0.53;;;14.50;99.90;;;;;;5062610;28;20336;-55
2022/09/20 05:49:10;;;;;;;0.83;0.80;;;14.60;99.90;;;;;;5067463;28;20192;-51
2022/09/20 05:52:04;;;;;;;1.20;0.60;;;14.60;99.90;;;;;;5065915;28;20192;-51
2022/09/20 05:54:58;;;;;;;0.70;0.70;;;14.60;99.90;;;;;;5064958;28;20287;-48
2022/09/20 05:57:39;;;;;;;0.70;0.70;;;14.60;99.90;;;;;;5051705;28;20644;-51
2022/09/20 06:00:12;;;;;;;0.60;0.60;;;14.70;99.90;;;;;;5064383;28;20200;-48
2022/09/20 06:02:48;;;;;;;0.70;0.70;;;14.70;99.90;;;;;;5068151;28;20572;-47
2022/09/20 06:05:21;;;;;;;0.83;0.70;;;14.80;99.90;;;;;;5065273;28;20233;-48
2022/09/20 06:08:27;;;;;;;0.60;0.60;;;14.80;99.90;;;;;;5063562;28;20675;-50
2022/09/20 06:11:04;;;;;;;0.57;0.57;;;14.90;99.90;;;;;;5001675;28;20219;-50
2022/09/20 06:13:51;;;;;;;0.70;0.70;;;14.90;99.90;;;;;;5062680;28;20596;-50
2022/09/20 06:16:26;;;;;;;0.50;0.50;;;15.00;99.90;;;;;;5062157;28;20201;-47
2022/09/20 06:19:05;;;;;;;2.70;0.50;;;14.90;99.90;;;;;;5065597;28;20490;-48
2022/09/20 06:21:40;;;;;;;0.50;0.50;;;15.00;99.90;;;;;;5064703;28;20196;-51
2022/09/20 06:24:21;;;;;;;0.90;0.60;;;15.00;99.90;;;;;;5063723;28;20545;-47
2022/09/20 06:26:50;;;;;;;0.67;0.67;;;15.00;99.90;;;;;;5062811;28;20200;-52
2022/09/20 06:29:24;;;;;;;0.60;0.60;;;15.00;99.90;;;;;;5064441;28;20194;-46
2022/09/20 06:31:53;;;;;;;0.50;0.50;;;15.10;99.90;;;;;;5064610;28;20228;-45
2022/09/20 06:34:21;;;;;;;0.70;0.60;;;15.10;99.90;;;;;;5064921;28;20191;-45
2022/09/20 06:42:33;;;;;;;1.00;0.80;;;15.30;99.90;;;;;;5063159;28;20659;-50
2022/09/20 06:44:59;;;;;;;0.70;0.70;;;15.30;99.90;;;;;;5066645;28;20200;-45
2022/09/20 06:47:27;;;;;;;0.60;0.60;;;15.40;99.90;;;;;;5062751;28;20276;-48
2022/09/20 06:49:54;;;;;;;0.70;0.70;;;15.40;99.90;;;;;;5066622;28;20529;-49
2022/09/20 06:52:22;;;;;;;0.90;0.90;;;15.40;99.90;;;;;;5064070;28;20284;-48
2022/09/20 06:54:53;;;;;;;0.63;0.50;;;15.40;99.90;;;;;;5064746;28;20212;-55
2022/09/20 06:57:26;;;;;;;0.60;0.60;;;15.50;99.90;;;;;;5060855;28;20334;-54
2022/09/20 06:59:53;;;;;;;0.60;0.60;;;15.50;99.90;;;;;;5063500;28;20233;-50
2022/09/20 07:02:20;;;;;;;0.70;0.70;;;15.50;99.90;;;;;;5067284;28;20256;-53
2022/09/20 07:04:47;;;;;;;0.57;0.57;;;15.50;99.90;;;;;;5067194;28;20280;-55
2022/09/20 07:07:17;;;;;;;0.63;0.60;;;15.50;99.90;;;;;;5065275;28;20668;-52
2022/09/20 07:09:44;;;;;;;0.50;0.50;;;15.60;99.90;;;;;;5062851;28;20275;-49
2022/09/20 07:12:13;;;;;;;0.60;0.60;;;15.60;99.90;;;;;;5096409;28;20193;-53
2022/09/20 07:14:40;;;;;;;0.60;0.60;;;15.70;99.90;;;;;;5064038;28;20308;-52
2022/09/20 07:17:07;;;;;;;0.60;0.60;;;15.70;99.90;;;;;;5067482;28;20557;-53
2022/09/20 07:19:35;;;;;;;1.03;0.63;;;15.80;99.90;;;;;;5065394;28;20676;-55
2022/09/20 07:22:02;;;;;;;1.27;0.87;;;15.80;99.90;;;;;;5063002;28;20197;-55
2022/09/20 07:24:31;;;;;;;1.60;0.67;;;15.90;99.90;;;;;;5063385;28;20193;-48
2022/09/20 07:26:59;;;;;;;0.53;0.53;;;16.00;99.90;;;;;;5065371;28;20201;-52
2022/09/20 07:29:28;;;;;;;0.60;0.60;;;16.10;99.90;;;;;;5061542;28;20256;-55
2022/09/20 07:31:57;;;;;;;1.40;0.50;;;16.10;99.90;;;;;;5064548;28;20201;-50
2022/09/20 07:34:26;;;;;;;0.60;0.60;;;16.20;99.90;;;;;;5062786;28;20604;-52
2022/09/20 07:36:53;;;;;;;0.50;0.50;;;16.30;99.90;;;;;;5067636;28;20240;-52
2022/09/20 07:39:20;;;;;;;0.63;0.63;;;16.30;99.90;;;;;;5061304;28;20219;-49
2022/09/20 07:41:49;;;;;;;0.77;0.77;;;16.40;99.90;;;;;;5063295;28;20244;-50
2022/09/20 07:44:24;;;;;;;0.80;0.80;;;16.40;99.90;;;;;;5063220;28;20570;-53
2022/09/20 07:46:54;;;;;;;2.73;0.70;;;16.40;99.90;;;;;;5063411;28;20548;-56
2022/09/20 07:49:21;;;;;;;0.67;0.50;;;16.50;99.90;;;;;;5067573;28;20239;-54
2022/09/20 07:51:49;;;;;;;0.70;0.70;;;16.50;99.90;;;;;;5070719;28;20579;-53
2022/09/20 07:54:17;;;;;;;0.60;0.50;;;16.50;99.90;;;;;;5070797;28;20632;-49
2022/09/20 07:56:44;;;;;;;0.70;0.70;;;16.70;99.90;;;;;;5068123;28;20226;-54
2022/09/20 07:59:12;;;;;;;0.53;0.53;;;17.10;99.90;;;;;;5068157;28;20203;-49
2022/09/20 08:01:39;;;;;;;1.90;1.80;;;17.50;99.90;;;;;;5067007;28;20653;-53
2022/09/20 08:04:08;;;;;;;1.27;1.20;;;17.80;99.40;;;;;;5069890;28;20275;-51
2022/09/20 08:06:37;;;;;;;0.93;0.93;;;18.10;99.20;;;;;;5066091;28;20316;-54
2022/09/20 08:09:04;;;;;;;0.70;0.70;;;18.60;98.60;;;;;;5067309;28;20192;-55
2022/09/20 08:11:31;;;;;;;0.50;0.50;;;18.90;97.90;;;;;;5065170;28;20522;-49
2022/09/20 08:14:00;;;;;;;0.50;0.50;;;19.00;97.40;;;;;;5067026;28;20201;-54
2022/09/20 08:16:28;;;;;;;0.50;0.50;;;19.20;97.10;;;;;;5064212;28;20282;-55
2022/09/20 08:18:57;;;;;;;0.40;0.40;;;19.40;96.50;;;;;;5068504;28;20221;-51
2022/09/20 08:21:27;;;;;;;0.43;0.43;;;19.40;95.90;;;;;;5065083;28;20555;-55
2022/09/20 08:23:54;;;;;;;0.47;0.47;;;19.30;95.70;;;;;;5067544;28;20291;-52
2022/09/20 08:26:24;;;;;;;0.50;0.50;;;19.20;95.80;;;;;;5065889;28;20653;-54
2022/09/20 08:28:53;;;;;;;0.30;0.30;;;19.50;95.70;;;;;;5065755;28;20197;-55
2022/09/20 08:31:21;;;;;;;0.75;0.60;;;19.80;95.10;;;;;;5064315;28;20216;-54
2022/09/20 08:33:49;;;;;;;0.40;0.40;;;19.90;94.80;;;;;;5067167;28;20249;-51
2022/09/20 08:36:19;;;;;;;0.60;0.60;;;19.80;94.70;;;;;;5066055;28;20212;-55
2022/09/20 08:38:48;;;;;;;0.63;0.60;;;19.60;94.80;;;;;;5068037;28;20687;-55
2022/09/20 08:41:20;;;;;;;0.60;0.60;;;19.30;94.90;;;;;;5062327;28;20307;-52
2022/09/20 08:43:52;;;;;;;0.50;0.50;;;19.30;95.10;;;;;;5065068;28;20221;-53
2022/09/20 08:46:27;;;;;;;0.57;0.57;;;19.40;95.00;;;;;;5064404;28;20620;-55
2022/09/20 08:48:56;;;;;;;0.60;0.52;;;19.40;94.50;;;;;;5065684;28;20682;-55
2022/09/20 08:51:33;;;;;;;0.40;0.40;;;19.20;94.50;;;;;;5067385;28;20557;-52
2022/09/20 08:54:02;;;;;;;0.40;0.40;;;19.00;94.70;;;;;;5070680;28;20196;-49
2022/09/20 08:56:32;;;;;;;0.40;0.40;;;18.80;94.80;;;;;;5061778;28;20189;-55
2022/09/20 08:58:59;;;;;;;1.02;0.77;;;18.70;94.90;;;;;;5068979;28;20237;-55
2022/09/20 09:01:30;;;;;;;1.95;0.50;;;18.50;95.00;;;;;;5065600;28;20205;-52
2022/09/20 09:04:02;;;;;;;0.50;0.50;;;18.40;95.10;;;;;;5068753;28;20216;-50
2022/09/20 09:06:30;;;;;;;0.50;0.50;;;18.30;95.20;;;;;;5066878;28;20181;-53
2022/09/20 09:08:59;;;;;;;0.50;0.50;;;18.20;95.40;;;;;;5067961;28;20192;-53
2022/09/20 09:11:27;;;;;;;2.17;0.70;;;18.10;95.50;;;;;;5064079;28;20204;-50
2022/09/20 09:14:00;;;;;;;0.70;0.70;;;18.00;95.60;;;;;;5068891;28;20190;-52
2022/09/20 09:16:30;;;;;;;0.50;0.50;;;17.90;95.70;;;;;;5062521;28;20209;-49
2022/09/20 09:18:57;;;;;;;0.50;0.50;;;17.80;95.80;;;;;;5066924;28;20216;-53
2022/09/20 09:21:26;;;;;;;1.48;0.80;;;17.70;96.20;;;;;;5064874;28;20638;-52
2022/09/20 09:24:01;;;;;;;0.47;0.47;;;17.60;96.40;;;;;;5063472;28;20232;-55
2022/09/20 09:26:36;;;;;;;0.60;0.60;;;17.50;96.60;;;;;;5064023;28;20835;-54
2022/09/20 09:29:16;;;;;;;0.50;0.50;;;17.40;96.70;;;;;;5065490;28;20278;-49
2022/09/20 09:31:44;;;;;;;0.60;0.60;;;17.40;96.80;;;;;;5065505;28;20196;-49
2022/09/20 09:34:25;;;;;;;2.05;0.55;;;17.40;97.00;;;;;;5065647;28;20288;-54
2022/09/20 09:36:54;;;;;;;0.70;0.70;;;17.60;97.30;;;;;;5065895;28;20210;-55
2022/09/20 09:39:24;;;;;;;2.60;0.60;;;18.80;97.10;;;;;;5060678;28;20209;-54
2022/09/20 09:41:53;;;;;;;0.50;0.50;;;20.00;95.50;;;;;;5063085;28;20205;-54
2022/09/20 09:44:23;;;;;;;0.30;0.30;;;21.20;94.30;;;;;;5063058;28;20300;-53
2022/09/20 09:46:52;;;;;;;0.47;0.47;;;22.10;93.20;;;;;;5064096;28;20304;-50
2022/09/20 09:49:21;;;;;;;0.50;0.50;;;22.80;91.50;;;;;;5100416;27;20640;-53
2022/09/20 09:52:13;;;;;;;0.40;0.40;;;23.30;88.80;;;;;;5068403;28;20205;-54
2022/09/20 09:54:46;;;;;;;0.70;0.70;;;23.90;87.90;;;;;;5063953;28;20201;-52
2022/09/20 09:57:37;;;;;;;0.63;0.60;;;24.10;86.10;;;;;;5065120;28;20497;-52
2022/09/20 10:00:16;;;;;;;1.30;0.85;;;24.20;86.20;;;;;;5066736;28;20197;-55
2022/09/20 10:03:02;;;;;;;0.40;0.40;;;23.60;86.30;;;;;;5068114;28;20200;-50
2022/09/20 10:05:35;;;;;;;1.25;0.40;;;22.70;87.40;;;;;;5067672;28;20197;-52
2022/09/20 10:08:15;;;;;;;0.63;0.50;;;21.90;89.10;;;;;;5063308;28;20190;-49
2022/09/20 10:10:59;;;;;;;0.70;0.70;;;21.30;90.20;;;;;;5066285;28;20185;-48
2022/09/20 10:13:35;;;;;;;0.68;0.68;;;20.80;90.80;;;;;;5064526;28;20257;-53
2022/09/20 10:16:10;;;;;;;0.85;0.60;;;20.40;91.40;;;;;;5064679;28;20192;-53
2022/09/20 10:18:44;;;;;;;3.95;0.50;;;20.00;91.80;;;;;;5067252;28;20678;-52
2022/09/20 10:21:27;;;;;;;0.60;0.60;;;19.60;92.30;;;;;;5064936;28;20265;-55
2022/09/20 10:24:15;;;;;;;0.43;0.43;;;19.40;92.80;;;;;;5062906;28;20211;-53
2022/09/20 10:27:00;;;;;;;1.08;0.68;;;19.20;93.20;;;;;;5060539;28;20672;-53
2022/09/20 10:29:40;;;;;;;0.50;0.50;;;18.90;93.50;;;;;;5064812;28;20643;-55
2022/09/20 10:32:19;;;;;;;1.15;0.80;;;18.80;93.80;;;;;;5065298;28;20236;-55
2022/09/20 10:35:17;;;;;;;0.60;0.60;;;18.60;94.10;;;;;;5064834;28;20205;-53
2022/09/20 10:38:02;;;;;;;1.55;0.60;;;18.50;94.40;;;;;;5053438;28;20282;-55
2022/09/20 10:43:27;;;;;;;0.47;0.47;;;18.30;95.00;;;;;;5061209;28;20663;-51
2022/09/20 10:46:07;;;;;;;0.50;0.50;;;18.20;95.20;;;;;;5066175;28;20240;-54
2022/09/20 10:48:41;;;;;;;1.67;0.43;;;18.10;95.40;;;;;;5063887;28;20644;-55
2022/09/20 10:51:16;;;;;;;1.40;0.68;;;18.00;95.80;;;;;;5067342;28;20196;-52
2022/09/20 10:53:53;;;;;;;1.00;0.50;;;17.90;96.10;;;;;;5064758;28;20193;-54
2022/09/20 10:56:28;;;;;;;1.38;0.65;;;17.80;96.30;;;;;;5061315;28;20533;-54
2022/09/20 10:59:34;;;;;;;0.50;0.50;;;17.70;96.90;;;;;;5063688;28;20204;-54
2022/09/20 11:02:20;;;;;;;0.50;0.50;;;17.60;97.10;;;;;;5060366;28;20272;-55
2022/09/20 11:05:23;;;;;;;0.40;0.40;;;17.60;97.40;;;;;;5064048;28;20207;-51
2022/09/20 11:08:01;;;;;;;0.77;0.70;;;17.50;97.60;;;;;;5065207;28;20208;-52
2022/09/20 11:10:34;;;;;;;0.40;0.40;;;17.50;97.90;;;;;;5059925;28;20208;-54
2022/09/20 11:13:07;;;;;;;0.40;0.40;;;17.50;98.10;;;;;;5059975;28;20307;-52
2022/09/20 11:15:40;;;;;;;0.50;0.50;;;17.50;98.40;;;;;;5096520;28;20292;-49
2022/09/20 11:18:16;;;;;;;0.50;0.50;;;17.50;98.50;;;;;;5062877;28;20701;-54
2022/09/20 11:20:47;;;;;;;0.45;0.45;;;17.50;98.60;;;;;;5060029;28;20233;-53
2022/09/20 11:23:19;;;;;;;0.65;0.65;;;17.50;98.70;;;;;;5060587;28;20207;-47
2022/09/20 11:25:50;;;;;;;1.70;0.60;;;17.40;98.80;;;;;;5063488;28;20204;-47
2022/09/20 11:28:24;;;;;;;0.52;0.52;;;17.50;99.00;;;;;;5061912;28;20200;-47
2022/09/20 11:30:58;;;;;;;0.52;0.52;;;17.50;99.10;;;;;;5065325;28;20190;-52
2022/09/20 11:33:29;;;;;;;0.47;0.47;;;17.50;99.20;;;;;;5061779;28;20225;-50
2022/09/20 11:36:01;;;;;;;0.60;0.60;;;17.50;99.30;;;;;;5066510;28;20635;-55
2022/09/20 11:38:35;;;;;;;0.70;0.70;;;17.50;99.40;;;;;;5061114;28;20224;-50
2022/09/20 11:41:08;;;;;;;0.63;0.63;;;17.40;99.50;;;;;;5061376;28;20213;-55
2022/09/20 11:43:39;;;;;;;0.70;0.70;;;17.40;99.70;;;;;;5062458;28;20189;-55
2022/09/20 11:46:10;;;;;;;0.60;0.60;;;17.30;99.90;;;;;;5061952;28;20203;-55
2022/09/20 11:48:44;;;;;;;0.60;0.60;;;17.20;99.90;;;;;;5066574;28;20225;-49
2022/09/20 11:51:41;;;;;;;0.50;0.50;;;17.10;99.80;;;;;;5062503;28;20501;-53
2022/09/20 11:54:35;;;;;;;0.85;0.70;;;17.10;99.70;;;;;;5033243;28;20224;-50
2022/09/20 11:57:06;;;;;;;1.27;0.60;;;17.00;99.60;;;;;;5065496;28;20250;-53
2022/09/20 11:59:36;;;;;;;0.70;0.70;;;16.90;99.60;;;;;;5062318;28;20696;-54
2022/09/20 12:02:15;;;;;;;0.70;0.70;;;16.90;99.80;;;;;;5062992;28;20707;-50
2022/09/20 12:04:46;;;;;;;0.50;0.50;;;16.90;99.90;;;;;;5063483;28;20196;-47
2022/09/20 12:07:18;;;;;;;2.10;0.60;;;16.80;99.90;;;;;;5061072;28;20194;-54
2022/09/20 12:09:52;;;;;;;0.63;0.60;;;16.80;99.90;;;;;;5065630;28;20187;-48
2022/09/20 12:12:32;;;;;;;0.50;0.50;;;16.80;99.90;;;;;;5060911;28;20247;-53
2022/09/20 12:15:01;;;;;;;0.50;0.50;;;16.80;99.90;;;;;;5063249;28;20292;-53
2022/09/20 12:18:02;;;;;;;0.70;0.70;;;16.80;99.90;;;;;;5060999;28;20220;-52
2022/09/20 12:20:59;;;;;;;0.60;0.60;;;16.70;99.90;;;;;;5060110;28;20621;-52
2022/09/20 12:24:01;;;;;;;0.80;0.80;;;16.70;99.90;;;;;;5059940;28;20682;-52
2022/09/20 12:26:46;;;;;;;0.50;0.50;;;16.70;99.90;;;;;;5058455;28;20191;-51
2022/09/20 12:29:56;;;;;;;0.70;0.70;;;16.70;99.90;;;;;;5060190;28;20286;-54
2022/09/20 12:32:57;;;;;;;0.80;0.80;;;16.60;99.90;;;;;;5050046;28;20239;-49
2022/09/20 12:35:59;;;;;;;0.70;0.70;;;16.60;99.90;;;;;;5065326;28;20192;-48
2022/09/20 12:38:38;;;;;;;0.70;0.60;;;16.60;99.90;;;;;;5065836;28;20222;-50
2022/09/20 12:41:15;;;;;;;0.70;0.70;;;16.60;99.90;;;;;;5065106;28;20198;-54
2022/09/20 12:44:01;;;;;;;0.53;0.53;;;16.60;99.90;;;;;;5069354;28;20528;-54
2022/09/20 12:46:40;;;;;;;1.42;0.80;;;16.60;99.90;;;;;;5068212;28;20223;-54
2022/09/20 12:55:44;;;;;;;0.60;0.60;;;16.60;99.90;;;;;;5066913;28;20217;-52
2022/09/20 12:58:31;;;;;;;0.60;0.60;;;16.60;99.90;;;;;;5066111;28;20270;-55
2022/09/20 13:01:31;;;;;;;0.67;0.67;;;16.60;99.90;;;;;;5067065;28;20619;-53
2022/09/20 13:04:34;;;;;;;0.80;0.80;;;16.60;99.90;;;;;;5068382;28;20203;-48
2022/09/20 13:07:36;;;;;;;0.50;0.50;;;16.70;99.90;;;;;;5062205;28;20227;-53
2022/09/20 13:10:16;;;;;;;0.60;0.60;;;16.80;99.90;;;;;;5065983;28;20779;-52
2022/09/20 13:12:46;;;;;;;0.53;0.53;;;16.80;99.90;;;;;;5068359;28;20221;-54
2022/09/20 13:15:18;;;;;;;1.20;0.65;;;16.90;99.90;;;;;;5068506;28;20610;-54
2022/09/20 13:17:49;;;;;;;0.63;0.63;;;17.00;99.90;;;;;;5067049;28;20235;-51
2022/09/20 13:20:20;;;;;;;0.70;0.70;;;17.00;99.90;;;;;;5067976;28;20624;-53
2022/09/20 13:22:49;;;;;;;0.70;0.70;;;17.10;99.90;;;;;;5064891;28;20526;-52
2022/09/20 13:25:20;;;;;;;0.95;0.88;;;17.20;99.90;;;;;;5063074;28;20579;-54
2022/09/20 13:27:53;;;;;;;0.60;0.60;;;17.30;99.90;;;;;;5065145;28;20264;-52
2022/09/20 13:30:23;;;;;;;0.55;0.55;;;17.40;99.90;;;;;;5065287;28;20188;-55
2022/09/20 13:32:51;;;;;;;0.60;0.60;;;17.40;99.90;;;;;;5068516;28;20738;-55
2022/09/20 13:35:20;;;;;;;0.60;0.60;;;17.40;99.90;;;;;;5065987;28;20202;-53
2022/09/20 13:37:53;;;;;;;0.70;0.70;;;17.50;99.90;;;;;;5063004;28;20223;-53
2022/09/20 13:40:23;;;;;;;2.10;0.80;;;17.50;99.90;;;;;;5064060;28;20298;-54
2022/09/20 13:42:52;;;;;;;1.23;1.13;;;17.50;99.90;;;;;;5060446;28;20196;-54
2022/09/20 13:45:21;;;;;;;1.20;1.10;;;17.40;99.90;;;;;;5067073;28;20681;-54
2022/09/20 13:47:51;;;;;;;0.90;0.90;;;17.40;99.90;;;;;;5062689;28;20206;-48
2022/09/20 13:50:23;;;;;;;1.25;0.70;;;17.50;99.90;;;;;;5062797;28;20284;-51
2022/09/20 13:52:53;;;;;;;1.00;0.90;;;17.50;99.90;;;;;;5064286;28;20188;-53
2022/09/20 13:55:28;;;;;;;0.90;0.90;;;17.60;99.90;;;;;;5064448;28;20204;-54
2022/09/20 13:57:59;;;;;;;1.48;1.00;;;17.60;99.90;;;;;;5062828;28;20202;-53